createdAt,value
2018-01-15T00:00:40.835Z,81.57
2018-01-15T00:01:40.933Z,81.29
2018-01-15T00:02:40.757Z,81.57
2018-01-15T00:03:40.799Z,81.48
2018-01-15T00:04:40.694Z,81.48
2018-01-15T00:05:40.760Z,81.57
2018-01-15T00:06:40.667Z,81.57
2018-01-15T00:07:40.592Z,81.57
2018-01-15T00:08:40.642Z,81.57
2018-01-15T00:09:40.527Z,81.57
2018-01-15T00:10:40.626Z,81.76
2018-01-15T00:11:40.465Z,81.48
2018-01-15T00:12:40.514Z,81.57
2018-01-15T00:13:41.788Z,81.38
2018-01-15T00:14:40.451Z,81.38
2018-01-15T00:15:40.342Z,81.20
2018-01-15T00:16:40.447Z,81.57
2018-01-15T00:17:40.280Z,81.29
2018-01-15T00:18:40.310Z,80.82
2018-01-15T00:19:40.210Z,81.20
2018-01-15T00:20:40.177Z,80.91
2018-01-15T00:21:40.214Z,81.48
2018-01-15T00:22:40.113Z,80.72
2018-01-15T00:23:40.134Z,80.63
2018-01-15T00:24:40.052Z,80.53
2018-01-15T00:25:40.041Z,81.10
2018-01-15T00:26:40.041Z,80.44
2018-01-15T00:27:40.049Z,80.15
2018-01-15T00:28:39.920Z,80.44
2018-01-15T00:29:39.959Z,79.77
2018-01-15T00:30:39.874Z,79.87
2018-01-15T00:31:39.873Z,79.87
2018-01-15T00:32:39.791Z,80.34
2018-01-15T00:33:39.818Z,80.06
2018-01-15T00:34:39.724Z,80.25
2018-01-15T00:35:39.791Z,80.06
2018-01-15T00:36:39.669Z,79.68
2018-01-15T00:37:39.713Z,79.77
2018-01-15T00:38:39.600Z,80.25
2018-01-15T00:39:39.661Z,80.06
2018-01-15T00:40:39.576Z,79.96
2018-01-15T00:41:39.590Z,80.06
2018-01-15T00:42:39.476Z,80.15
2018-01-15T00:43:39.520Z,80.25
2018-01-15T00:44:39.405Z,80.44
2018-01-15T00:45:39.420Z,79.68
2018-01-15T00:46:39.343Z,79.68
2018-01-15T00:47:39.418Z,79.96
2018-01-15T00:48:39.275Z,79.68
2018-01-15T00:49:39.334Z,80.25
2018-01-15T00:50:39.212Z,80.06
2018-01-15T00:51:39.287Z,80.06
2018-01-15T00:52:39.153Z,80.34
2018-01-15T00:53:39.197Z,80.34
2018-01-15T00:54:39.091Z,80.44
2018-01-15T00:55:39.122Z,80.63
2018-01-15T00:56:39.036Z,80.63
2018-01-15T00:57:39.087Z,80.53
2018-01-15T00:58:38.962Z,81.10
2018-01-15T00:59:39.080Z,80.53
2018-01-15T01:00:38.891Z,80.72
2018-01-15T01:01:38.857Z,80.53
2018-01-15T01:02:38.824Z,80.82
2018-01-15T01:03:38.796Z,80.91
2018-01-15T01:04:38.763Z,80.91
2018-01-15T01:05:38.735Z,80.63
2018-01-15T01:06:38.867Z,80.63
2018-01-15T01:07:38.664Z,80.91
2018-01-15T01:08:38.701Z,80.82
2018-01-15T01:09:38.614Z,80.44
2018-01-15T01:10:38.628Z,80.91
2018-01-15T01:11:38.552Z,80.82
2018-01-15T01:12:38.569Z,81.48
2018-01-15T01:13:38.480Z,81.01
2018-01-15T01:14:38.543Z,81.10
2018-01-15T01:15:38.415Z,81.20
2018-01-15T01:16:38.412Z,81.20
2018-01-15T01:17:38.352Z,81.20
2018-01-15T01:18:38.368Z,81.20
2018-01-15T01:19:38.287Z,81.29
2018-01-15T01:20:38.349Z,81.48
2018-01-15T01:21:38.215Z,81.29
2018-01-15T01:22:38.200Z,81.38
2018-01-15T01:23:38.154Z,81.48
2018-01-15T01:24:38.126Z,81.29
2018-01-15T01:25:38.104Z,81.48
2018-01-15T01:26:38.067Z,81.48
2018-01-15T01:27:38.074Z,81.20
2018-01-15T01:28:37.996Z,81.20
2018-01-15T01:29:37.968Z,81.10
2018-01-15T01:30:37.948Z,81.29
2018-01-15T01:31:37.947Z,80.72
2018-01-15T01:32:37.865Z,80.72
2018-01-15T01:33:37.874Z,80.53
2018-01-15T01:34:37.801Z,81.10
2018-01-15T01:35:37.773Z,81.20
2018-01-15T01:36:37.750Z,81.48
2018-01-15T01:37:37.702Z,81.10
2018-01-15T01:38:37.675Z,81.20
2018-01-15T01:39:37.636Z,81.48
2018-01-15T01:40:37.615Z,81.29
2018-01-15T01:41:37.578Z,81.10
2018-01-15T01:42:37.551Z,81.29
2018-01-15T01:43:37.515Z,81.20
2018-01-15T01:44:37.491Z,81.38
2018-01-15T01:45:37.455Z,81.38
2018-01-15T01:46:37.424Z,81.95
2018-01-15T01:47:37.386Z,81.67
2018-01-15T01:48:37.353Z,81.01
2018-01-15T01:49:37.318Z,81.38
2018-01-15T01:50:37.366Z,81.38
2018-01-15T01:51:37.306Z,81.48
2018-01-15T01:52:37.305Z,81.10
2018-01-15T01:53:37.194Z,81.48
2018-01-15T01:54:37.201Z,81.01
2018-01-15T01:55:37.128Z,81.38
2018-01-15T01:56:37.234Z,81.01
2018-01-15T01:57:37.108Z,81.10
2018-01-15T01:58:37.075Z,81.48
2018-01-15T01:59:37.008Z,81.57
2018-01-15T02:00:37.022Z,81.67
2018-01-15T02:01:36.951Z,81.95
2018-01-15T02:02:36.953Z,81.86
2018-01-15T02:03:36.901Z,81.20
2018-01-15T02:04:36.842Z,81.86
2018-01-15T02:05:36.836Z,81.67
2018-01-15T02:06:36.845Z,81.38
2018-01-15T02:07:36.742Z,81.86
2018-01-15T02:08:36.774Z,81.20
2018-01-15T02:09:36.679Z,81.38
2018-01-15T02:10:36.721Z,81.20
2018-01-15T02:11:36.619Z,81.67
2018-01-15T02:12:36.638Z,81.48
2018-01-15T02:13:36.614Z,81.86
2018-01-15T02:14:36.574Z,81.67
2018-01-15T02:15:36.493Z,81.48
2018-01-15T02:16:36.511Z,81.67
2018-01-15T02:17:36.429Z,81.86
2018-01-15T02:18:36.418Z,81.86
2018-01-15T02:19:36.360Z,81.86
2018-01-15T02:20:36.365Z,81.95
2018-01-15T02:21:36.294Z,81.76
2018-01-15T02:22:36.261Z,81.86
2018-01-15T02:23:36.230Z,81.67
2018-01-15T02:24:36.200Z,81.95
2018-01-15T02:25:36.169Z,81.57
2018-01-15T02:26:36.135Z,81.76
2018-01-15T02:27:36.103Z,81.67
2018-01-15T02:28:36.088Z,81.95
2018-01-15T02:29:36.041Z,81.76
2018-01-15T02:30:36.006Z,81.86
2018-01-15T02:31:35.976Z,81.95
2018-01-15T02:32:35.937Z,81.86
2018-01-15T02:33:35.920Z,81.01
2018-01-15T02:34:35.875Z,81.86
2018-01-15T02:35:35.856Z,81.76
2018-01-15T02:36:35.855Z,81.76
2018-01-15T02:37:35.782Z,81.86
2018-01-15T02:38:35.752Z,81.57
2018-01-15T02:39:35.727Z,81.48
2018-01-15T02:40:35.698Z,81.48
2018-01-15T02:41:35.654Z,81.01
2018-01-15T02:42:35.622Z,81.38
2018-01-15T02:43:35.598Z,80.91
2018-01-15T02:44:35.557Z,81.86
2018-01-15T02:45:35.525Z,81.05
2018-01-15T02:46:35.496Z,81.99
2018-01-15T02:47:35.476Z,81.24
2018-01-15T02:48:35.428Z,81.43
2018-01-15T02:49:35.402Z,81.14
2018-01-15T02:50:35.366Z,81.62
2018-01-15T02:51:35.339Z,81.62
2018-01-15T02:52:35.302Z,81.05
2018-01-15T02:53:35.269Z,81.24
2018-01-15T02:54:35.241Z,81.14
2018-01-15T02:55:35.208Z,81.43
2018-01-15T02:56:35.174Z,81.24
2018-01-15T02:57:35.164Z,81.33
2018-01-15T02:58:35.111Z,81.52
2018-01-15T02:59:35.081Z,81.43
2018-01-15T03:00:35.057Z,81.71
2018-01-15T03:01:35.024Z,81.14
2018-01-15T03:02:34.991Z,81.33
2018-01-15T03:03:34.969Z,81.05
2018-01-15T03:04:34.927Z,80.67
2018-01-15T03:05:34.890Z,81.24
2018-01-15T03:06:34.881Z,80.86
2018-01-15T03:07:34.832Z,80.67
2018-01-15T03:08:34.795Z,81.33
2018-01-15T03:09:34.776Z,81.33
2018-01-15T03:10:34.735Z,81.52
2018-01-15T03:11:34.701Z,80.76
2018-01-15T03:12:34.684Z,81.14
2018-01-15T03:13:34.638Z,81.14
2018-01-15T03:14:34.605Z,81.52
2018-01-15T03:15:34.590Z,81.43
2018-01-15T03:16:34.551Z,81.43
2018-01-15T03:17:34.514Z,81.24
2018-01-15T03:18:34.505Z,80.67
2018-01-15T03:19:34.456Z,80.76
2018-01-15T03:20:34.423Z,81.52
2018-01-15T03:21:34.404Z,80.95
2018-01-15T03:22:34.395Z,81.24
2018-01-15T03:23:34.324Z,81.33
2018-01-15T03:24:34.298Z,80.86
2018-01-15T03:25:34.253Z,81.52
2018-01-15T03:26:34.232Z,81.24
2018-01-15T03:27:34.210Z,81.24
2018-01-15T03:28:34.172Z,81.14
2018-01-15T03:29:34.134Z,80.76
2018-01-15T03:30:34.122Z,80.67
2018-01-15T03:31:34.076Z,80.67
2018-01-15T03:32:34.039Z,80.67
2018-01-15T03:33:34.044Z,80.57
2018-01-15T03:34:33.983Z,80.67
2018-01-15T03:35:33.956Z,80.86
2018-01-15T03:36:33.924Z,80.48
2018-01-15T03:37:33.878Z,81.52
2018-01-15T03:38:33.856Z,81.52
2018-01-15T03:39:33.836Z,80.86
2018-01-15T03:40:33.796Z,80.67
2018-01-15T03:41:33.767Z,80.76
2018-01-15T03:42:33.769Z,80.57
2018-01-15T03:43:33.692Z,80.67
2018-01-15T03:44:33.661Z,80.76
2018-01-15T03:45:33.651Z,80.86
2018-01-15T03:46:33.600Z,81.52
2018-01-15T03:47:33.569Z,81.33
2018-01-15T03:48:33.554Z,81.33
2018-01-15T03:49:33.503Z,81.14
2018-01-15T03:50:33.477Z,81.71
2018-01-15T03:51:33.496Z,81.24
2018-01-15T03:52:33.411Z,81.43
2018-01-15T03:53:33.379Z,81.43
2018-01-15T03:54:33.365Z,81.43
2018-01-15T03:55:33.317Z,80.48
2018-01-15T03:56:33.288Z,80.67
2018-01-15T03:57:33.278Z,81.43
2018-01-15T03:58:33.226Z,81.43
2018-01-15T03:59:33.214Z,81.52
2018-01-15T04:00:33.190Z,81.43
2018-01-15T04:01:33.135Z,80.67
2018-01-15T04:02:33.097Z,81.43
2018-01-15T04:03:33.092Z,81.33
2018-01-15T04:04:33.032Z,81.24
2018-01-15T04:05:33.015Z,81.18
2018-01-15T04:06:32.983Z,81.33
2018-01-15T04:07:32.937Z,81.24
2018-01-15T04:08:32.908Z,81.24
2018-01-15T04:09:32.902Z,81.24
2018-01-15T04:10:32.891Z,81.24
2018-01-15T04:11:32.812Z,81.18
2018-01-15T04:12:32.802Z,81.14
2018-01-15T04:13:32.777Z,81.18
2018-01-15T04:14:32.724Z,80.71
2018-01-15T04:15:32.710Z,81.37
2018-01-15T04:16:32.659Z,81.33
2018-01-15T04:17:32.628Z,81.33
2018-01-15T04:18:32.617Z,80.90
2018-01-15T04:19:32.566Z,81.56
2018-01-15T04:20:32.530Z,81.37
2018-01-15T04:21:32.517Z,81.47
2018-01-15T04:22:32.472Z,80.80
2018-01-15T04:23:32.482Z,80.62
2018-01-15T04:24:32.426Z,81.18
2018-01-15T04:25:32.379Z,80.90
2018-01-15T04:26:32.350Z,81.18
2018-01-15T04:27:32.334Z,81.18
2018-01-15T04:28:32.288Z,81.09
2018-01-15T04:29:32.252Z,81.09
2018-01-15T04:30:32.221Z,81.37
2018-01-15T04:31:32.199Z,81.56
2018-01-15T04:32:32.157Z,81.47
2018-01-15T04:33:32.125Z,81.94
2018-01-15T04:34:32.092Z,81.85
2018-01-15T04:35:32.058Z,81.75
2018-01-15T04:36:32.031Z,81.37
2018-01-15T04:37:32.002Z,81.37
2018-01-15T04:38:31.976Z,81.66
2018-01-15T04:39:31.941Z,81.56
2018-01-15T04:40:31.907Z,81.66
2018-01-15T04:41:31.878Z,81.85
2018-01-15T04:42:31.849Z,81.47
2018-01-15T04:43:31.813Z,81.47
2018-01-15T04:44:31.782Z,81.56
2018-01-15T04:45:31.755Z,81.47
2018-01-15T04:46:31.718Z,81.27
2018-01-15T04:47:31.689Z,81.47
2018-01-15T04:48:31.675Z,80.71
2018-01-15T04:49:31.625Z,81.18
2018-01-15T04:50:31.591Z,81.27
2018-01-15T04:51:31.583Z,80.71
2018-01-15T04:52:31.535Z,81.37
2018-01-15T04:53:31.501Z,81.18
2018-01-15T04:54:31.504Z,81.18
2018-01-15T04:55:31.440Z,81.75
2018-01-15T04:56:31.412Z,81.37
2018-01-15T04:57:31.417Z,81.47
2018-01-15T04:58:31.349Z,80.90
2018-01-15T04:59:31.316Z,80.71
2018-01-15T05:00:31.307Z,80.90
2018-01-15T05:01:31.257Z,80.99
2018-01-15T05:02:31.220Z,80.71
2018-01-15T05:03:31.210Z,80.71
2018-01-15T05:04:31.162Z,80.62
2018-01-15T05:05:31.127Z,80.62
2018-01-15T05:06:31.152Z,80.62
2018-01-15T05:07:31.066Z,80.71
2018-01-15T05:08:31.043Z,80.62
2018-01-15T05:09:31.026Z,81.37
2018-01-15T05:10:30.980Z,81.18
2018-01-15T05:11:30.947Z,81.18
2018-01-15T05:12:30.939Z,81.47
2018-01-15T05:13:30.882Z,81.47
2018-01-15T05:14:30.852Z,81.09
2018-01-15T05:15:30.838Z,81.47
2018-01-15T05:16:30.788Z,81.09
2018-01-15T05:17:30.757Z,80.52
2018-01-15T05:18:30.746Z,81.27
2018-01-15T05:19:30.696Z,81.37
2018-01-15T05:20:30.670Z,81.37
2018-01-15T05:21:30.648Z,81.37
2018-01-15T05:22:30.603Z,81.18
2018-01-15T05:23:30.567Z,81.37
2018-01-15T05:24:30.574Z,81.47
2018-01-15T05:25:30.528Z,81.27
2018-01-15T05:26:30.482Z,81.27
2018-01-15T05:27:30.468Z,81.37
2018-01-15T05:28:30.421Z,81.18
2018-01-15T05:29:30.387Z,81.18
2018-01-15T05:30:30.412Z,81.56
2018-01-15T05:31:30.328Z,81.37
2018-01-15T05:32:30.289Z,81.27
2018-01-15T05:33:30.295Z,81.56
2018-01-15T05:34:30.225Z,81.66
2018-01-15T05:35:30.198Z,81.56
2018-01-15T05:36:30.189Z,81.56
2018-01-15T05:37:30.141Z,81.56
2018-01-15T05:38:30.108Z,81.75
2018-01-15T05:39:30.088Z,82.04
2018-01-15T05:40:30.063Z,81.85
2018-01-15T05:41:30.043Z,81.66
2018-01-15T05:42:29.998Z,81.75
2018-01-15T05:43:29.946Z,81.94
2018-01-15T05:44:29.916Z,81.75
2018-01-15T05:45:29.900Z,81.66
2018-01-15T05:46:29.856Z,81.85
2018-01-15T05:47:29.824Z,81.75
2018-01-15T05:48:29.813Z,81.47
2018-01-15T05:49:29.774Z,81.85
2018-01-15T05:50:29.736Z,81.66
2018-01-15T05:51:29.726Z,81.94
2018-01-15T05:52:29.675Z,81.94
2018-01-15T05:53:29.640Z,81.85
2018-01-15T05:54:29.633Z,81.66
2018-01-15T05:55:29.581Z,81.75
2018-01-15T05:56:29.552Z,81.94
2018-01-15T05:57:29.535Z,81.85
2018-01-15T05:58:29.482Z,81.94
2018-01-15T05:59:29.465Z,81.75
2018-01-15T06:00:29.435Z,81.75
2018-01-15T06:01:29.399Z,81.79
2018-01-15T06:02:29.367Z,82.04
2018-01-15T06:03:29.423Z,81.94
2018-01-15T06:04:29.303Z,81.60
2018-01-15T06:05:29.271Z,81.98
2018-01-15T06:06:29.307Z,81.79
2018-01-15T06:07:29.215Z,82.08
2018-01-15T06:08:29.181Z,81.98
2018-01-15T06:09:29.162Z,82.17
2018-01-15T06:10:29.116Z,81.79
2018-01-15T06:11:29.123Z,81.98
2018-01-15T06:12:29.064Z,82.65
2018-01-15T06:13:29.025Z,82.17
2018-01-15T06:14:28.995Z,82.27
2018-01-15T06:15:28.971Z,82.17
2018-01-15T06:16:28.929Z,82.36
2018-01-15T06:17:28.914Z,82.65
2018-01-15T06:18:28.867Z,82.17
2018-01-15T06:19:28.839Z,81.98
2018-01-15T06:20:28.813Z,82.46
2018-01-15T06:21:28.784Z,82.46
2018-01-15T06:22:28.744Z,81.88
2018-01-15T06:23:28.717Z,81.79
2018-01-15T06:24:28.687Z,81.98
2018-01-15T06:25:28.656Z,81.79
2018-01-15T06:26:28.626Z,82.08
2018-01-15T06:27:28.593Z,81.79
2018-01-15T06:28:28.564Z,81.88
2018-01-15T06:29:28.525Z,82.46
2018-01-15T06:30:28.495Z,82.08
2018-01-15T06:31:28.482Z,82.46
2018-01-15T06:32:28.441Z,82.36
2018-01-15T06:33:28.404Z,82.46
2018-01-15T06:34:28.373Z,82.46
2018-01-15T06:35:28.343Z,82.08
2018-01-15T06:36:28.349Z,82.46
2018-01-15T06:37:28.287Z,81.98
2018-01-15T06:38:28.258Z,82.74
2018-01-15T06:39:28.227Z,82.42
2018-01-15T06:40:28.187Z,82.51
2018-01-15T06:41:28.178Z,82.27
2018-01-15T06:42:28.135Z,82.32
2018-01-15T06:43:28.097Z,82.79
2018-01-15T06:44:28.089Z,82.60
2018-01-15T06:45:28.085Z,82.60
2018-01-15T06:46:28.009Z,82.89
2018-01-15T06:47:27.976Z,82.98
2018-01-15T06:48:27.970Z,83.46
2018-01-15T06:49:27.917Z,83.17
2018-01-15T06:50:27.894Z,82.98
2018-01-15T06:51:27.852Z,82.89
2018-01-15T06:52:27.814Z,83.17
2018-01-15T06:53:27.784Z,83.74
2018-01-15T06:54:27.754Z,83.55
2018-01-15T06:55:27.733Z,83.46
2018-01-15T06:56:27.753Z,83.74
2018-01-15T06:57:27.663Z,84.03
2018-01-15T06:58:27.632Z,83.65
2018-01-15T06:59:27.627Z,83.65
2018-01-15T07:00:27.573Z,83.55
2018-01-15T07:01:27.540Z,84.03
2018-01-15T07:02:27.514Z,84.31
2018-01-15T07:03:27.487Z,84.12
2018-01-15T07:04:27.449Z,84.12
2018-01-15T07:05:27.418Z,84.22
2018-01-15T07:06:27.389Z,84.31
2018-01-15T07:07:27.358Z,84.31
2018-01-15T07:08:27.329Z,84.12
2018-01-15T07:09:27.315Z,84.50
2018-01-15T07:10:27.275Z,84.41
2018-01-15T07:11:27.305Z,85.07
2018-01-15T07:12:27.199Z,84.98
2018-01-15T07:13:27.162Z,84.88
2018-01-15T07:14:27.130Z,85.45
2018-01-15T07:15:27.113Z,85.26
2018-01-15T07:16:27.078Z,85.07
2018-01-15T07:17:27.049Z,85.26
2018-01-15T07:18:27.014Z,85.45
2018-01-15T07:19:26.988Z,85.26
2018-01-15T07:20:26.952Z,85.07
2018-01-15T07:21:26.922Z,85.07
2018-01-15T07:22:26.894Z,85.26
2018-01-15T07:23:26.860Z,85.83
2018-01-15T07:24:26.831Z,85.83
2018-01-15T07:25:26.794Z,85.64
2018-01-15T07:26:26.758Z,85.36
2018-01-15T07:27:26.731Z,85.83
2018-01-15T07:28:26.725Z,85.36
2018-01-15T07:29:26.665Z,85.45
2018-01-15T07:30:26.638Z,85.55
2018-01-15T07:31:26.601Z,85.64
2018-01-15T07:32:26.575Z,86.02
2018-01-15T07:33:26.545Z,85.64
2018-01-15T07:34:26.515Z,85.83
2018-01-15T07:35:26.492Z,85.64
2018-01-15T07:36:26.452Z,85.74
2018-01-15T07:37:26.419Z,85.83
2018-01-15T07:38:26.386Z,85.55
2018-01-15T07:39:26.355Z,85.83
2018-01-15T07:40:26.329Z,85.74
2018-01-15T07:41:26.327Z,85.74
2018-01-15T07:42:26.261Z,86.40
2018-01-15T07:43:26.230Z,86.40
2018-01-15T07:44:26.199Z,86.40
2018-01-15T07:45:26.176Z,86.49
2018-01-15T07:46:26.137Z,86.11
2018-01-15T07:47:26.110Z,86.11
2018-01-15T07:48:26.101Z,86.30
2018-01-15T07:49:26.040Z,86.40
2018-01-15T07:50:26.008Z,86.40
2018-01-15T07:51:25.978Z,86.30
2018-01-15T07:52:25.948Z,86.02
2018-01-15T07:53:25.913Z,85.64
2018-01-15T07:54:25.886Z,86.02
2018-01-15T07:55:25.856Z,86.30
2018-01-15T07:56:25.837Z,86.49
2018-01-15T07:57:25.799Z,86.02
2018-01-15T07:58:25.765Z,85.74
2018-01-15T07:59:25.736Z,86.40
2018-01-15T08:00:25.708Z,86.49
2018-01-15T08:01:25.669Z,86.49
2018-01-15T08:02:25.638Z,86.49
2018-01-15T08:03:25.618Z,86.59
2018-01-15T08:04:25.585Z,85.55
2018-01-15T08:05:25.543Z,85.83
2018-01-15T08:06:25.515Z,85.64
2018-01-15T08:07:25.516Z,85.74
2018-01-15T08:08:25.447Z,85.64
2018-01-15T08:09:25.427Z,85.64
2018-01-15T08:10:25.386Z,86.49
2018-01-15T08:11:25.361Z,85.74
2018-01-15T08:12:25.335Z,85.74
2018-01-15T08:13:25.302Z,85.55
2018-01-15T08:14:25.268Z,86.02
2018-01-15T08:15:25.236Z,86.40
2018-01-15T08:16:25.208Z,85.55
2018-01-15T08:17:25.203Z,85.55
2018-01-15T08:18:25.141Z,85.64
2018-01-15T08:19:25.113Z,85.83
2018-01-15T08:20:25.079Z,85.93
2018-01-15T08:21:25.085Z,85.83
2018-01-15T08:22:25.027Z,85.83
2018-01-15T08:23:24.996Z,85.45
2018-01-15T08:24:24.973Z,85.55
2018-01-15T08:25:24.922Z,85.64
2018-01-15T08:26:24.916Z,85.83
2018-01-15T08:27:24.893Z,85.36
2018-01-15T08:28:24.841Z,85.64
2018-01-15T08:29:24.802Z,85.45
2018-01-15T08:30:24.772Z,85.55
2018-01-15T08:31:24.744Z,85.45
2018-01-15T08:32:24.711Z,85.45
2018-01-15T08:33:24.682Z,85.26
2018-01-15T08:34:24.651Z,85.17
2018-01-15T08:35:24.616Z,85.36
2018-01-15T08:36:24.584Z,85.21
2018-01-15T08:37:24.550Z,85.30
2018-01-15T08:38:24.520Z,85.36
2018-01-15T08:39:24.530Z,84.83
2018-01-15T08:40:24.457Z,85.40
2018-01-15T08:41:24.428Z,84.83
2018-01-15T08:42:24.408Z,85.40
2018-01-15T08:43:24.370Z,84.83
2018-01-15T08:44:24.348Z,84.92
2018-01-15T08:45:24.308Z,85.02
2018-01-15T08:46:24.274Z,85.02
2018-01-15T08:47:24.245Z,85.30
2018-01-15T08:48:24.210Z,84.83
2018-01-15T08:49:24.196Z,85.11
2018-01-15T08:50:24.148Z,85.02
2018-01-15T08:51:24.121Z,85.11
2018-01-15T08:52:24.094Z,85.21
2018-01-15T08:53:24.059Z,85.30
2018-01-15T08:54:24.033Z,84.92
2018-01-15T08:55:24.000Z,85.11
2018-01-15T08:56:23.968Z,85.11
2018-01-15T08:57:23.935Z,84.45
2018-01-15T08:58:23.933Z,83.78
2018-01-15T08:59:23.875Z,84.26
2018-01-15T09:00:23.841Z,84.17
2018-01-15T09:01:23.811Z,83.78
2018-01-15T09:02:23.782Z,84.26
2018-01-15T09:03:23.750Z,84.26
2018-01-15T09:04:23.721Z,84.36
2018-01-15T09:05:23.686Z,84.26
2018-01-15T09:06:23.656Z,84.36
2018-01-15T09:07:23.625Z,84.17
2018-01-15T09:08:23.598Z,84.17
2018-01-15T09:09:23.568Z,84.07
2018-01-15T09:10:23.543Z,84.74
2018-01-15T09:11:23.506Z,84.07
2018-01-15T09:12:23.493Z,84.36
2018-01-15T09:13:23.491Z,84.45
2018-01-15T09:14:23.425Z,83.88
2018-01-15T09:15:23.384Z,83.69
2018-01-15T09:16:23.354Z,83.59
2018-01-15T09:17:23.320Z,83.50
2018-01-15T09:18:23.309Z,83.97
2018-01-15T09:19:23.262Z,83.88
2018-01-15T09:20:23.233Z,83.40
2018-01-15T09:21:23.196Z,83.73
2018-01-15T09:22:23.175Z,83.59
2018-01-15T09:23:23.141Z,83.36
2018-01-15T09:24:23.110Z,83.54
2018-01-15T09:25:23.084Z,83.73
2018-01-15T09:26:23.057Z,83.64
2018-01-15T09:27:23.019Z,83.73
2018-01-15T09:28:22.990Z,83.92
2018-01-15T09:29:22.957Z,83.45
2018-01-15T09:30:22.925Z,83.07
2018-01-15T09:31:22.903Z,83.36
2018-01-15T09:32:22.862Z,82.78
2018-01-15T09:33:22.836Z,83.26
2018-01-15T09:34:22.805Z,82.97
2018-01-15T09:35:22.770Z,83.16
2018-01-15T09:36:22.748Z,82.69
2018-01-15T09:37:22.719Z,83.16
2018-01-15T09:38:22.683Z,83.07
2018-01-15T09:39:22.692Z,83.26
2018-01-15T09:40:22.627Z,82.59
2018-01-15T09:41:22.659Z,82.69
2018-01-15T09:42:22.573Z,83.36
2018-01-15T09:43:22.536Z,82.78
2018-01-15T09:44:22.509Z,82.69
2018-01-15T09:45:22.476Z,82.69
2018-01-15T09:46:22.441Z,83.36
2018-01-15T09:47:22.412Z,82.69
2018-01-15T09:48:22.388Z,82.40
2018-01-15T09:49:22.347Z,82.21
2018-01-15T09:50:22.323Z,82.50
2018-01-15T09:51:22.291Z,82.40
2018-01-15T09:52:22.263Z,82.12
2018-01-15T09:53:22.231Z,82.50
2018-01-15T09:54:22.200Z,82.59
2018-01-15T09:55:22.174Z,81.65
2018-01-15T09:56:22.150Z,81.74
2018-01-15T09:57:22.148Z,82.21
2018-01-15T09:58:22.082Z,81.55
2018-01-15T09:59:22.054Z,81.55
2018-01-15T10:00:22.029Z,81.74
2018-01-15T10:01:21.995Z,81.74
2018-01-15T10:02:21.964Z,81.68
2018-01-15T10:03:21.933Z,81.55
2018-01-15T10:04:21.904Z,81.36
2018-01-15T10:05:21.893Z,81.40
2018-01-15T10:06:21.851Z,81.30
2018-01-15T10:07:21.845Z,80.98
2018-01-15T10:08:21.783Z,81.26
2018-01-15T10:09:21.749Z,81.40
2018-01-15T10:10:21.728Z,81.30
2018-01-15T10:11:21.689Z,81.59
2018-01-15T10:12:21.668Z,81.02
2018-01-15T10:13:21.633Z,80.83
2018-01-15T10:14:21.603Z,81.21
2018-01-15T10:15:21.598Z,81.49
2018-01-15T10:16:21.559Z,81.68
2018-01-15T10:17:21.520Z,80.83
2018-01-15T10:18:21.495Z,80.93
2018-01-15T10:19:21.452Z,81.40
2018-01-15T10:20:21.427Z,81.21
2018-01-15T10:21:21.390Z,81.49
2018-01-15T10:22:21.358Z,80.64
2018-01-15T10:23:21.333Z,80.93
2018-01-15T10:24:21.326Z,81.12
2018-01-15T10:25:21.269Z,81.68
2018-01-15T10:26:21.241Z,81.30
2018-01-15T10:27:21.216Z,81.49
2018-01-15T10:28:21.188Z,81.30
2018-01-15T10:29:21.158Z,80.93
2018-01-15T10:30:21.130Z,81.49
2018-01-15T10:31:21.100Z,81.30
2018-01-15T10:32:21.071Z,81.78
2018-01-15T10:33:21.038Z,81.49
2018-01-15T10:34:21.009Z,81.30
2018-01-15T10:35:20.979Z,81.40
2018-01-15T10:36:20.944Z,81.49
2018-01-15T10:37:20.914Z,81.30
2018-01-15T10:38:20.914Z,81.68
2018-01-15T10:39:20.862Z,81.59
2018-01-15T10:40:20.842Z,81.78
2018-01-15T10:41:20.795Z,81.87
2018-01-15T10:42:20.765Z,81.78
2018-01-15T10:43:20.740Z,81.49
2018-01-15T10:44:20.722Z,81.87
2018-01-15T10:45:20.685Z,81.59
2018-01-15T10:46:20.652Z,81.78
2018-01-15T10:47:20.621Z,81.97
2018-01-15T10:48:20.595Z,81.68
2018-01-15T10:49:20.567Z,81.68
2018-01-15T10:50:20.542Z,82.07
2018-01-15T10:51:20.514Z,81.40
2018-01-15T10:52:20.475Z,81.59
2018-01-15T10:53:20.503Z,81.59
2018-01-15T10:54:20.413Z,82.07
2018-01-15T10:55:20.385Z,81.97
2018-01-15T10:56:20.358Z,81.87
2018-01-15T10:57:20.326Z,81.78
2018-01-15T10:58:20.295Z,81.68
2018-01-15T10:59:20.273Z,82.73
2018-01-15T11:00:20.233Z,81.97
2018-01-15T11:01:20.204Z,82.39
2018-01-15T11:02:20.175Z,82.35
2018-01-15T11:03:20.148Z,82.54
2018-01-15T11:04:20.124Z,82.54
2018-01-15T11:05:20.085Z,82.64
2018-01-15T11:06:20.055Z,82.54
2018-01-15T11:07:20.027Z,82.45
2018-01-15T11:08:20.004Z,82.82
2018-01-15T11:09:19.976Z,82.68
2018-01-15T11:10:19.945Z,82.39
2018-01-15T11:11:19.922Z,82.26
2018-01-15T11:12:19.881Z,82.54
2018-01-15T11:13:19.850Z,82.26
2018-01-15T11:14:19.823Z,82.45
2018-01-15T11:15:19.830Z,82.54
2018-01-15T11:16:19.764Z,82.58
2018-01-15T11:17:19.739Z,82.29
2018-01-15T11:18:19.727Z,82.77
2018-01-15T11:19:19.673Z,82.87
2018-01-15T11:20:19.649Z,82.10
2018-01-15T11:21:19.618Z,81.82
2018-01-15T11:22:19.582Z,81.82
2018-01-15T11:23:19.568Z,82.58
2018-01-15T11:24:19.527Z,81.92
2018-01-15T11:25:19.503Z,82.01
2018-01-15T11:26:19.499Z,82.10
2018-01-15T11:27:19.443Z,82.58
2018-01-15T11:28:19.421Z,82.29
2018-01-15T11:29:19.383Z,82.77
2018-01-15T11:30:19.355Z,82.58
2018-01-15T11:31:19.430Z,82.96
2018-01-15T11:32:19.355Z,82.77
2018-01-15T11:33:19.261Z,82.87
2018-01-15T11:34:19.257Z,82.87
2018-01-15T11:35:19.240Z,83.25
2018-01-15T11:36:19.179Z,83.25
2018-01-15T11:37:19.155Z,83.82
2018-01-15T11:38:19.120Z,83.62
2018-01-15T11:39:19.089Z,84.06
2018-01-15T11:40:19.064Z,85.20
2018-01-15T11:41:19.035Z,86.00
2018-01-15T11:42:19.003Z,85.86
2018-01-15T11:43:18.971Z,85.53
2018-01-15T11:44:18.944Z,85.81
2018-01-15T11:45:18.925Z,85.91
2018-01-15T11:46:18.882Z,85.86
2018-01-15T11:47:18.865Z,85.96
2018-01-15T11:48:18.830Z,86.43
2018-01-15T11:49:18.793Z,85.91
2018-01-15T11:50:18.762Z,85.91
2018-01-15T11:51:18.737Z,85.43
2018-01-15T11:52:18.703Z,85.43
2018-01-15T11:53:18.683Z,86.57
2018-01-15T11:54:18.648Z,85.62
2018-01-15T11:55:18.618Z,86.47
2018-01-15T11:56:18.594Z,86.53
2018-01-15T11:57:18.566Z,85.68
2018-01-15T11:58:18.533Z,85.96
2018-01-15T11:59:18.501Z,86.43
2018-01-15T12:00:18.496Z,86.34
2018-01-15T12:01:18.438Z,86.34
2018-01-15T12:02:18.417Z,85.86
2018-01-15T12:03:18.381Z,85.96
2018-01-15T12:04:18.357Z,86.63
2018-01-15T12:05:18.324Z,86.63
2018-01-15T12:06:18.303Z,86.82
2018-01-15T12:07:18.289Z,87.19
2018-01-15T12:08:18.244Z,86.91
2018-01-15T12:09:18.208Z,87.57
2018-01-15T12:10:18.175Z,87.48
2018-01-15T12:11:18.146Z,87.38
2018-01-15T12:12:18.124Z,88.15
2018-01-15T12:13:18.092Z,88.71
2018-01-15T12:14:18.054Z,89.09
2018-01-15T12:15:18.033Z,89.57
2018-01-15T12:16:17.999Z,89.28
2018-01-15T12:17:17.969Z,88.90
2018-01-15T12:18:17.938Z,88.53
2018-01-15T12:19:17.909Z,88.24
2018-01-15T12:20:17.901Z,88.43
2018-01-15T12:21:17.852Z,87.76
2018-01-15T12:22:17.824Z,88.15
2018-01-15T12:23:17.798Z,88.05
2018-01-15T12:24:17.796Z,88.15
2018-01-15T12:25:17.731Z,88.15
2018-01-15T12:26:17.726Z,88.15
2018-01-15T12:27:17.676Z,87.86
2018-01-15T12:28:17.650Z,88.53
2018-01-15T12:29:17.613Z,88.15
2018-01-15T12:30:17.595Z,88.43
2018-01-15T12:31:17.557Z,87.76
2018-01-15T12:32:17.523Z,88.43
2018-01-15T12:33:17.492Z,88.81
2018-01-15T12:34:17.482Z,88.81
2018-01-15T12:35:17.456Z,88.43
2018-01-15T12:36:17.407Z,88.43
2018-01-15T12:37:17.377Z,89.28
2018-01-15T12:38:17.347Z,88.81
2018-01-15T12:39:17.325Z,89.47
2018-01-15T12:40:17.284Z,89.47
2018-01-15T12:41:17.262Z,89.09
2018-01-15T12:42:17.225Z,89.57
2018-01-15T12:43:17.202Z,89.19
2018-01-15T12:44:17.165Z,89.76
2018-01-15T12:45:17.132Z,89.57
2018-01-15T12:46:17.120Z,89.86
2018-01-15T12:47:17.076Z,90.23
2018-01-15T12:48:17.045Z,89.95
2018-01-15T12:49:17.041Z,90.42
2018-01-15T12:50:17.000Z,90.23
2018-01-15T12:51:16.958Z,89.95
2018-01-15T12:52:16.940Z,90.23